Terminal Aerodrome Forecast
Issued by NWS Pittsburgh, PA

Current Version | Previous Version | Text Only | Print | Product List | Glossary Off
Versions: 1 2 3 4 5 6 7 8 9 10 11 12 13 14 15 16 17 18 19 20 21 22 23 24 25 26 27 28 29 30 31 32 33 34 35

000
FTUS41 KPBZ 152300
TAFPIT
TAF
KPIT 152320Z 1600/1706 11006KT 6SM HZ OVC016
     FM160200 13005KT P6SM SCT020 BKN200
     FM160800 15007KT 5SM -SHRA OVC030
     FM161200 16006KT 4SM -SHRA BR OVC015
     FM161800 20006KT 3SM BR OVC010
     FM162000 24008KT 2SM -SHRA BR OVC008=

USA.gov is the U.S. government's official web portal to all federal, state and local government web resources and services.